createdAt,value
2022-12-22T00:02:01.085Z,9.28
2022-12-22T00:04:47.023Z,9.21
2022-12-22T00:07:33.419Z,9.28
2022-12-22T00:10:31.931Z,9.27
2022-12-22T00:13:19.441Z,9.29
2022-12-22T00:16:06.651Z,9.30
2022-12-22T00:18:52.680Z,9.30
2022-12-22T00:21:37.902Z,9.23
2022-12-22T00:24:23.738Z,9.26
2022-12-22T00:27:11.084Z,9.35
2022-12-22T00:30:00.504Z,9.32
2022-12-22T00:32:51.294Z,9.23
2022-12-22T00:35:39.930Z,9.30
2022-12-22T00:38:32.795Z,9.24
2022-12-22T00:41:21.055Z,9.31
2022-12-22T00:44:06.843Z,9.42
2022-12-22T00:46:58.721Z,9.39
2022-12-22T00:49:47.220Z,9.48
2022-12-22T00:52:34.995Z,9.53
2022-12-22T00:55:23.772Z,9.51
2022-12-22T00:58:09.688Z,9.52
2022-12-22T01:00:59.067Z,9.51
2022-12-22T01:03:46.414Z,9.50
2022-12-22T01:06:32.670Z,9.47
2022-12-22T01:09:18.773Z,9.58
2022-12-22T01:12:04.440Z,9.63
2022-12-22T01:14:50.243Z,9.59
2022-12-22T01:17:35.898Z,9.60
2022-12-22T01:20:25.356Z,9.54
2022-12-22T01:23:10.769Z,9.57
2022-12-22T01:25:56.351Z,9.55
2022-12-22T01:28:42.547Z,9.56
2022-12-22T01:31:40.394Z,9.64
2022-12-22T01:34:27.988Z,9.64
2022-12-22T01:37:15.040Z,9.57
2022-12-22T01:40:00.876Z,9.57
2022-12-22T01:42:49.433Z,9.49
2022-12-22T01:45:41.277Z,9.55
2022-12-22T01:48:30.573Z,9.61
2022-12-22T01:51:17.750Z,9.56
2022-12-22T01:54:07.250Z,9.58
2022-12-22T01:56:53.337Z,9.57
2022-12-22T01:59:39.280Z,9.61
2022-12-22T02:02:26.000Z,9.49
2022-12-22T02:05:16.410Z,9.56
2022-12-22T02:08:21.226Z,9.65
2022-12-22T02:11:39.449Z,9.55
2022-12-22T02:14:37.685Z,9.64
2022-12-22T02:17:32.395Z,9.61
2022-12-22T02:20:36.796Z,9.63
2022-12-22T02:23:33.764Z,9.65
2022-12-22T02:26:34.426Z,9.50
2022-12-22T02:29:21.785Z,9.60
2022-12-22T02:32:08.126Z,9.67
2022-12-22T02:34:53.977Z,9.62
2022-12-22T02:37:48.932Z,9.61
2022-12-22T02:40:43.128Z,9.61
2022-12-22T02:43:41.289Z,9.66
2022-12-22T02:46:34.321Z,9.52
2022-12-22T02:49:29.751Z,9.56
2022-12-22T02:52:20.300Z,9.59
2022-12-22T02:55:05.536Z,9.61
2022-12-22T02:57:50.731Z,9.52
2022-12-22T03:00:40.030Z,9.57
2022-12-22T03:03:26.155Z,9.66
2022-12-22T03:06:11.550Z,9.58
2022-12-22T03:08:57.768Z,9.57
2022-12-22T03:11:43.244Z,9.53
2022-12-22T03:14:28.597Z,9.52
2022-12-22T03:17:15.649Z,9.64
2022-12-22T03:20:00.975Z,9.52
2022-12-22T03:22:47.751Z,9.51
2022-12-22T03:25:33.725Z,9.60
2022-12-22T03:28:04.660Z,9.60
2022-12-22T03:30:33.108Z,9.60
2022-12-22T03:33:03.578Z,9.57
2022-12-22T03:35:31.653Z,9.60
2022-12-22T03:38:03.834Z,9.66
2022-12-22T03:40:32.547Z,9.66
2022-12-22T03:43:18.005Z,9.58
2022-12-22T03:46:03.286Z,9.52
2022-12-22T03:48:33.027Z,9.55
2022-12-22T03:51:01.308Z,9.46
2022-12-22T03:53:29.488Z,9.51
2022-12-22T03:55:59.247Z,9.45
2022-12-22T03:58:30.913Z,9.47
2022-12-22T04:01:07.847Z,9.38
2022-12-22T04:03:37.689Z,9.35
2022-12-22T04:06:06.910Z,9.36
2022-12-22T04:08:35.668Z,9.40
2022-12-22T04:11:20.889Z,9.31
2022-12-22T04:13:49.811Z,9.36
2022-12-22T04:16:18.083Z,9.45
2022-12-22T04:18:49.697Z,9.30
2022-12-22T04:21:18.460Z,9.26
2022-12-22T04:23:47.332Z,9.29
2022-12-22T04:26:17.464Z,9.36
2022-12-22T04:28:45.833Z,9.31
2022-12-22T04:31:14.412Z,9.31
2022-12-22T04:33:42.721Z,9.36
2022-12-22T04:36:13.125Z,9.34
2022-12-22T04:38:41.645Z,9.39
2022-12-22T04:41:10.312Z,9.45
2022-12-22T04:43:39.219Z,9.47
2022-12-22T04:46:07.850Z,9.52
2022-12-22T04:48:37.620Z,9.44
2022-12-22T04:51:07.289Z,9.50
2022-12-22T04:53:38.391Z,9.55
2022-12-22T04:56:10.409Z,9.53
2022-12-22T04:58:39.047Z,9.58
2022-12-22T05:01:11.766Z,9.64
2022-12-22T05:03:40.636Z,9.67
2022-12-22T05:06:09.316Z,9.66
2022-12-22T05:08:40.005Z,9.69
2022-12-22T05:11:08.841Z,9.71
2022-12-22T05:13:39.075Z,9.69
2022-12-22T05:16:09.891Z,9.71
2022-12-22T05:18:39.363Z,9.72
2022-12-22T05:21:09.764Z,9.69
2022-12-22T05:23:40.199Z,9.70
2022-12-22T05:26:10.394Z,9.74
2022-12-22T05:28:40.941Z,9.75
2022-12-22T05:31:11.283Z,9.75
2022-12-22T05:33:40.087Z,9.77
2022-12-22T05:36:09.967Z,9.78
2022-12-22T05:38:41.620Z,9.82
2022-12-22T05:41:11.304Z,9.79
2022-12-22T05:43:40.037Z,9.77
2022-12-22T05:46:11.510Z,9.87
2022-12-22T05:48:40.798Z,9.85
2022-12-22T05:51:11.227Z,9.83
2022-12-22T05:53:47.752Z,9.84
2022-12-22T05:56:16.205Z,9.83
2022-12-22T05:58:45.673Z,9.74
2022-12-22T06:01:14.277Z,9.79
2022-12-22T06:03:43.419Z,9.87
2022-12-22T06:06:11.804Z,9.80
2022-12-22T06:08:41.415Z,9.90
2022-12-22T06:11:09.669Z,9.92
2022-12-22T06:13:40.011Z,9.92
2022-12-22T06:16:09.253Z,9.95
2022-12-22T06:18:37.963Z,9.86
2022-12-22T06:21:07.370Z,9.96
2022-12-22T06:23:37.335Z,9.89
2022-12-22T06:26:09.645Z,9.90
2022-12-22T06:28:39.166Z,9.82
2022-12-22T06:31:08.991Z,9.92
2022-12-22T06:33:37.514Z,9.87
2022-12-22T06:36:07.018Z,9.90
2022-12-22T06:38:36.073Z,9.87
2022-12-22T06:41:11.971Z,9.92
2022-12-22T06:43:39.326Z,9.86
2022-12-22T06:46:07.818Z,9.96
2022-12-22T06:48:36.370Z,9.93
2022-12-22T06:51:06.919Z,9.92
2022-12-22T06:53:35.328Z,9.87
2022-12-22T06:56:03.891Z,9.91
2022-12-22T06:58:34.375Z,9.96
2022-12-22T07:01:02.826Z,9.98
2022-12-22T07:03:34.583Z,9.95
2022-12-22T07:06:04.622Z,9.98
2022-12-22T07:08:33.192Z,9.96
2022-12-22T07:11:03.724Z,10.03
2022-12-22T07:13:37.216Z,9.96
2022-12-22T07:16:09.069Z,10.04
2022-12-22T07:18:46.365Z,10.03
2022-12-22T07:21:16.961Z,9.98
2022-12-22T07:23:45.726Z,9.99
2022-12-22T07:26:15.541Z,9.99
2022-12-22T07:28:46.653Z,10.01
2022-12-22T07:31:17.631Z,10.06
2022-12-22T07:33:48.736Z,10.06
2022-12-22T07:36:19.864Z,10.12
2022-12-22T07:38:52.027Z,10.03
2022-12-22T07:41:38.821Z,10.04
2022-12-22T07:44:10.582Z,10.07
2022-12-22T07:46:42.952Z,10.06
2022-12-22T07:49:30.145Z,10.10
2022-12-22T07:51:59.644Z,10.10
2022-12-22T07:54:29.229Z,10.09
2022-12-22T07:56:58.400Z,10.11
2022-12-22T07:59:28.540Z,10.18
2022-12-22T08:02:00.442Z,10.18
2022-12-22T08:04:30.666Z,10.18
2022-12-22T08:07:01.728Z,10.18
2022-12-22T08:09:31.109Z,10.20
2022-12-22T08:12:00.394Z,10.22
2022-12-22T08:14:30.590Z,10.25
2022-12-22T08:17:01.008Z,10.24
2022-12-22T08:19:29.772Z,10.28
2022-12-22T08:21:58.576Z,10.29
2022-12-22T08:24:27.558Z,10.35
2022-12-22T08:27:00.310Z,10.36
2022-12-22T08:29:35.132Z,10.44
2022-12-22T08:32:07.990Z,10.51
2022-12-22T08:34:36.519Z,10.42
2022-12-22T08:37:09.252Z,10.47
2022-12-22T08:39:42.419Z,10.56
2022-12-22T08:42:14.829Z,10.54
2022-12-22T08:44:46.222Z,10.53
2022-12-22T08:47:17.082Z,10.61
2022-12-22T08:49:47.148Z,10.58
2022-12-22T08:52:18.891Z,10.55
2022-12-22T08:54:48.659Z,10.43
2022-12-22T08:57:17.720Z,10.41
2022-12-22T08:59:49.861Z,10.24
2022-12-22T09:02:18.212Z,10.26
2022-12-22T09:04:47.098Z,10.36
2022-12-22T09:07:16.737Z,10.17
2022-12-22T09:09:49.677Z,10.16
2022-12-22T09:12:19.406Z,10.21
2022-12-22T09:14:52.329Z,10.25
2022-12-22T09:17:20.861Z,10.27
2022-12-22T09:19:49.018Z,10.27
2022-12-22T09:22:21.735Z,10.26
2022-12-22T09:24:54.380Z,10.24
2022-12-22T09:27:25.689Z,10.38
2022-12-22T09:29:59.705Z,10.33
2022-12-22T09:32:35.076Z,10.51
2022-12-22T09:35:04.105Z,10.29
2022-12-22T09:37:36.015Z,10.34
2022-12-22T09:40:12.302Z,10.22
2022-12-22T09:42:44.587Z,10.38
2022-12-22T09:45:20.281Z,10.51
2022-12-22T09:47:56.159Z,10.67
2022-12-22T09:50:26.638Z,10.66
2022-12-22T09:53:00.139Z,10.72
2022-12-22T09:55:41.373Z,10.77
2022-12-22T09:58:25.925Z,10.78
2022-12-22T10:01:05.222Z,10.80
2022-12-22T10:03:43.093Z,10.89
2022-12-22T10:06:18.853Z,10.83
2022-12-22T10:08:51.736Z,10.62
2022-12-22T10:11:22.202Z,10.76
2022-12-22T10:13:51.438Z,10.78
2022-12-22T10:16:25.068Z,10.77
2022-12-22T10:19:02.783Z,10.64
2022-12-22T10:21:34.718Z,10.65
2022-12-22T10:24:23.684Z,10.65
2022-12-22T10:27:00.367Z,10.71
2022-12-22T10:29:31.271Z,10.61
2022-12-22T10:32:04.352Z,10.74
2022-12-22T10:34:33.897Z,10.76
2022-12-22T10:37:07.871Z,10.81
2022-12-22T10:39:38.654Z,10.86
2022-12-22T10:42:13.533Z,10.75
2022-12-22T10:44:48.785Z,10.87
2022-12-22T10:47:24.728Z,10.87
2022-12-22T10:52:32.010Z,10.90
2022-12-22T10:55:18.709Z,10.92
2022-12-22T10:57:47.759Z,10.73
2022-12-22T11:00:28.688Z,10.67
2022-12-22T11:03:01.191Z,10.78
2022-12-22T11:05:31.081Z,10.79
2022-12-22T11:08:12.904Z,10.76
2022-12-22T11:10:50.251Z,10.77
2022-12-22T11:13:48.958Z,10.85
2022-12-22T11:16:27.116Z,10.78
2022-12-22T11:19:11.757Z,10.87
2022-12-22T11:21:50.669Z,10.88
2022-12-22T11:24:36.738Z,10.96
2022-12-22T11:27:18.949Z,10.99
2022-12-22T11:30:03.970Z,10.99
2022-12-22T11:32:48.183Z,10.78
2022-12-22T11:35:27.343Z,10.89
2022-12-22T11:38:05.366Z,10.99
2022-12-22T11:40:36.337Z,11.03
2022-12-22T11:43:21.556Z,11.15
2022-12-22T11:46:01.703Z,11.24
2022-12-22T11:48:53.837Z,11.04
2022-12-22T11:51:36.475Z,11.31
2022-12-22T11:54:36.471Z,11.24
2022-12-22T11:57:17.033Z,11.39
2022-12-22T11:59:59.672Z,11.25
2022-12-22T12:03:16.390Z,11.13
2022-12-22T12:05:58.904Z,11.17
2022-12-22T12:08:41.098Z,11.31
2022-12-22T12:11:19.128Z,11.44
2022-12-22T12:13:58.889Z,11.46
2022-12-22T12:16:36.309Z,11.51
2022-12-22T12:19:40.367Z,11.39
2022-12-22T12:22:15.764Z,11.49
2022-12-22T12:25:01.901Z,11.53
2022-12-22T12:28:01.025Z,11.45
2022-12-22T12:30:39.063Z,11.31
2022-12-22T12:33:15.991Z,11.29
2022-12-22T12:35:56.023Z,11.34
2022-12-22T12:39:06.463Z,11.32
2022-12-22T12:41:31.454Z,11.35
2022-12-22T12:44:00.813Z,11.26
2022-12-22T12:47:00.005Z,11.09
2022-12-22T12:49:58.776Z,11.25
2022-12-22T12:53:06.462Z,11.18
2022-12-22T12:55:37.561Z,11.19
2022-12-22T12:58:11.981Z,11.28
2022-12-22T13:00:52.577Z,11.07
2022-12-22T13:06:53.577Z,11.29
2022-12-22T13:12:41.017Z,11.44
2022-12-22T13:15:33.512Z,11.25
2022-12-22T13:18:03.501Z,11.43
2022-12-22T13:20:35.128Z,11.33
2022-12-22T13:23:11.865Z,11.37
2022-12-22T13:25:46.993Z,11.24
2022-12-22T13:28:22.358Z,11.23
2022-12-22T13:30:59.661Z,11.08
2022-12-22T13:33:33.605Z,11.13
2022-12-22T13:36:03.000Z,11.14
2022-12-22T13:38:33.052Z,11.16
2022-12-22T13:41:06.657Z,11.40
2022-12-22T13:43:35.158Z,11.25
2022-12-22T13:46:10.967Z,11.17
2022-12-22T13:48:45.201Z,11.32
2022-12-22T13:51:21.078Z,11.33
2022-12-22T13:54:08.637Z,11.30
2022-12-22T13:56:41.319Z,11.18
2022-12-22T13:59:23.556Z,11.36
2022-12-22T14:01:59.591Z,11.44
2022-12-22T14:04:32.142Z,11.53
2022-12-22T14:07:12.930Z,11.30
2022-12-22T14:09:45.761Z,11.49
2022-12-22T14:12:16.647Z,11.48
2022-12-22T14:14:47.745Z,11.57
2022-12-22T14:17:23.389Z,11.34
2022-12-22T14:19:53.722Z,11.20
2022-12-22T14:22:25.920Z,11.29
2022-12-22T14:25:01.586Z,11.23
2022-12-22T14:27:37.978Z,11.40
2022-12-22T14:30:17.344Z,11.37
2022-12-22T14:32:55.877Z,11.21
2022-12-22T14:35:32.075Z,11.12
2022-12-22T14:38:27.903Z,11.10
2022-12-22T14:40:58.576Z,11.01
2022-12-22T14:43:35.549Z,10.98
2022-12-22T14:46:26.444Z,10.98
2022-12-22T14:49:00.323Z,10.92
2022-12-22T14:51:30.969Z,10.85
2022-12-22T14:54:03.596Z,10.67
2022-12-22T14:56:33.557Z,10.72
2022-12-22T14:59:14.230Z,10.57
2022-12-22T15:01:59.750Z,10.71
2022-12-22T15:04:36.186Z,10.64
2022-12-22T15:08:02.641Z,10.54
2022-12-22T15:10:15.781Z,10.48
2022-12-22T15:12:45.727Z,10.36
2022-12-22T15:15:18.033Z,10.28
2022-12-22T15:17:49.125Z,10.23
2022-12-22T15:20:25.552Z,10.10
2022-12-22T15:22:54.281Z,9.93
2022-12-22T15:25:24.653Z,9.89
2022-12-22T15:27:53.613Z,9.88
2022-12-22T15:30:29.842Z,9.92
2022-12-22T15:32:58.652Z,9.99
2022-12-22T15:35:31.975Z,9.93
2022-12-22T15:38:04.433Z,9.96
2022-12-22T15:40:33.857Z,9.97
2022-12-22T15:43:02.356Z,9.92
2022-12-22T15:45:32.046Z,9.92
2022-12-22T15:48:04.008Z,9.98
2022-12-22T15:50:39.240Z,9.91
2022-12-22T15:53:12.995Z,9.94
2022-12-22T15:55:46.304Z,10.04
2022-12-22T15:58:21.276Z,9.92
2022-12-22T16:00:49.731Z,9.92
2022-12-22T16:03:18.556Z,9.86
2022-12-22T16:05:48.654Z,9.81
2022-12-22T16:08:19.185Z,9.72
2022-12-22T16:10:48.511Z,9.81
2022-12-22T16:13:22.248Z,9.81
2022-12-22T16:15:53.011Z,9.97
2022-12-22T16:18:21.763Z,9.88
2022-12-22T16:20:52.998Z,9.80
2022-12-22T16:23:26.123Z,9.72
2022-12-22T16:26:02.012Z,9.66
2022-12-22T16:28:34.582Z,9.54
2022-12-22T16:31:03.474Z,9.68
2022-12-22T16:33:31.879Z,9.57
2022-12-22T16:36:06.388Z,9.66
2022-12-22T16:38:36.846Z,9.69
2022-12-22T16:41:06.240Z,9.81
2022-12-22T16:43:50.662Z,9.79
2022-12-22T16:46:26.997Z,9.80
2022-12-22T16:48:58.655Z,9.83
2022-12-22T16:51:34.133Z,9.86
2022-12-22T16:54:03.457Z,9.81
2022-12-22T16:56:37.957Z,9.75
2022-12-22T16:59:06.667Z,9.63
2022-12-22T17:01:41.373Z,9.76
2022-12-22T17:04:12.771Z,9.66
2022-12-22T17:06:44.167Z,9.74
2022-12-22T17:09:17.570Z,9.67
2022-12-22T17:11:48.191Z,9.71
2022-12-22T17:14:26.051Z,9.77
2022-12-22T17:16:54.803Z,9.75
2022-12-22T17:19:23.237Z,9.74
2022-12-22T17:21:57.589Z,9.81
2022-12-22T17:24:29.019Z,9.71
2022-12-22T17:27:00.142Z,9.64
2022-12-22T17:29:30.401Z,9.58
2022-12-22T17:32:01.861Z,9.63
2022-12-22T17:34:30.338Z,9.71
2022-12-22T17:37:00.362Z,9.69
2022-12-22T17:39:30.146Z,9.65
2022-12-22T17:41:59.641Z,9.60
2022-12-22T17:44:29.408Z,9.46
2022-12-22T17:47:05.514Z,9.43
2022-12-22T17:49:35.233Z,9.36
2022-12-22T17:52:08.599Z,9.49
2022-12-22T17:54:37.625Z,9.55
2022-12-22T17:57:08.402Z,9.53
2022-12-22T17:59:38.176Z,9.52
2022-12-22T18:02:08.967Z,9.57
2022-12-22T18:04:48.798Z,9.43
2022-12-22T18:07:24.233Z,9.57
2022-12-22T18:09:58.359Z,9.46
2022-12-22T18:12:27.023Z,9.36
2022-12-22T18:14:55.858Z,9.33
2022-12-22T18:17:33.369Z,9.39
2022-12-22T18:20:04.413Z,9.45
2022-12-22T18:22:34.605Z,9.51
2022-12-22T18:25:02.682Z,9.35
2022-12-22T18:27:40.574Z,9.38
2022-12-22T18:33:37.863Z,9.29
2022-12-22T18:36:06.882Z,9.24
2022-12-22T18:38:42.093Z,9.23
2022-12-22T18:41:11.839Z,9.15
2022-12-22T18:43:40.414Z,9.07
2022-12-22T18:46:12.225Z,9.13
2022-12-22T18:48:43.833Z,9.16
2022-12-22T18:51:19.979Z,9.21
2022-12-22T18:53:50.964Z,9.07
2022-12-22T18:56:20.846Z,9.13
2022-12-22T18:58:49.407Z,9.08
2022-12-22T19:01:21.417Z,9.07
2022-12-22T19:03:52.685Z,8.91
2022-12-22T19:06:24.412Z,8.85
2022-12-22T19:08:57.422Z,8.93
2022-12-22T19:11:28.852Z,8.80
2022-12-22T19:13:59.653Z,8.67
2022-12-22T19:16:28.425Z,8.68
2022-12-22T19:19:01.803Z,8.72
2022-12-22T19:21:30.160Z,8.68
2022-12-22T19:24:00.524Z,8.74
2022-12-22T19:26:31.957Z,8.73
2022-12-22T19:29:02.710Z,8.70
2022-12-22T19:31:33.448Z,8.65
2022-12-22T19:34:05.936Z,8.76
2022-12-22T19:36:36.000Z,8.79
2022-12-22T19:39:07.427Z,8.79
2022-12-22T19:41:41.555Z,8.73
2022-12-22T19:44:18.666Z,8.70
2022-12-22T19:46:50.326Z,8.76
2022-12-22T19:49:24.354Z,8.75
2022-12-22T19:51:54.790Z,8.78
2022-12-22T19:54:26.229Z,8.78
2022-12-22T19:57:00.103Z,8.83
2022-12-22T19:59:38.082Z,8.78
2022-12-22T20:02:26.691Z,8.81
2022-12-22T20:04:59.447Z,8.73
2022-12-22T20:07:36.495Z,8.81
2022-12-22T20:10:11.802Z,8.77
2022-12-22T20:12:45.441Z,8.77
2022-12-22T20:15:22.944Z,8.83
2022-12-22T20:17:53.715Z,8.80
2022-12-22T20:20:25.171Z,8.83
2022-12-22T20:22:57.023Z,8.79
2022-12-22T20:25:28.741Z,8.83
2022-12-22T20:28:00.430Z,8.88
2022-12-22T20:30:32.217Z,8.96
2022-12-22T20:33:01.586Z,8.92
2022-12-22T20:35:31.360Z,8.95
2022-12-22T20:38:04.588Z,8.95
2022-12-22T20:40:38.078Z,8.97
2022-12-22T20:43:06.785Z,8.95
2022-12-22T20:45:36.523Z,9.05
2022-12-22T20:48:11.566Z,9.12
2022-12-22T20:50:39.894Z,9.05
2022-12-22T20:53:11.314Z,9.06
2022-12-22T20:55:43.189Z,9.16
2022-12-22T20:58:17.536Z,9.10
2022-12-22T21:00:47.495Z,9.18
2022-12-22T21:03:17.179Z,9.10
2022-12-22T21:05:46.503Z,9.24
2022-12-22T21:08:20.469Z,9.15
2022-12-22T21:10:54.591Z,9.17
2022-12-22T21:13:24.867Z,9.13
2022-12-22T21:15:56.080Z,9.26
2022-12-22T21:18:26.362Z,9.17
2022-12-22T21:20:55.581Z,9.10
2022-12-22T21:23:28.379Z,9.15
2022-12-22T21:25:59.710Z,9.15
2022-12-22T21:28:37.236Z,9.14
2022-12-22T21:31:06.518Z,9.12
2022-12-22T21:33:37.617Z,9.16
2022-12-22T21:36:07.061Z,9.22
2022-12-22T21:38:37.907Z,9.22
2022-12-22T21:41:09.529Z,9.13
2022-12-22T21:43:39.381Z,9.15
2022-12-22T21:46:12.132Z,9.23
2022-12-22T21:48:40.849Z,9.15
2022-12-22T21:51:13.706Z,9.24
2022-12-22T21:53:46.348Z,9.24
2022-12-22T21:56:21.540Z,9.21
2022-12-22T21:58:50.703Z,9.14
2022-12-22T22:01:20.505Z,9.23
2022-12-22T22:03:51.476Z,9.23
2022-12-22T22:06:28.160Z,9.33
2022-12-22T22:08:58.112Z,9.29
2022-12-22T22:11:32.036Z,9.29
2022-12-22T22:14:04.973Z,9.28
2022-12-22T22:16:33.766Z,9.23
2022-12-22T22:19:02.413Z,9.36
2022-12-22T22:21:30.880Z,9.30
2022-12-22T22:24:00.604Z,9.40
2022-12-22T22:26:34.337Z,9.36
2022-12-22T22:29:04.661Z,9.48
2022-12-22T22:31:33.279Z,9.35
2022-12-22T22:34:02.869Z,9.42
2022-12-22T22:36:33.959Z,9.44
2022-12-22T22:39:03.051Z,9.32
2022-12-22T22:41:39.234Z,9.31
2022-12-22T22:44:12.598Z,9.43
2022-12-22T22:46:42.888Z,9.39
2022-12-22T22:49:11.591Z,9.42
2022-12-22T22:51:39.881Z,9.35
2022-12-22T22:54:08.582Z,9.40
2022-12-22T22:56:39.061Z,9.31
2022-12-22T22:59:13.335Z,9.45
2022-12-22T23:01:43.412Z,9.37
2022-12-22T23:04:13.181Z,9.40
2022-12-22T23:06:42.975Z,9.33
2022-12-22T23:09:14.549Z,9.48
2022-12-22T23:11:48.555Z,9.39
2022-12-22T23:14:19.121Z,9.42
2022-12-22T23:16:49.601Z,9.37
2022-12-22T23:19:23.356Z,9.25
2022-12-22T23:21:54.249Z,9.26
2022-12-22T23:24:24.547Z,9.33
2022-12-22T23:26:55.699Z,9.36
2022-12-22T23:29:24.619Z,9.41
2022-12-22T23:31:54.368Z,9.45
2022-12-22T23:34:24.582Z,9.55
2022-12-22T23:36:53.478Z,9.38
2022-12-22T23:39:22.916Z,9.35
2022-12-22T23:41:58.943Z,9.37
2022-12-22T23:44:27.545Z,9.34
2022-12-22T23:46:56.430Z,9.35
2022-12-22T23:49:26.298Z,9.34
2022-12-22T23:51:55.027Z,9.45
2022-12-22T23:54:23.282Z,9.33
2022-12-22T23:56:51.679Z,9.31
2022-12-22T23:59:22.395Z,9.44
